Airfield :
LOGIN :

Register | Disclaimer

   EN    FR    IT 

 










Legend :    VFR   Marginal VFR   IFR   Intensive IFR   Very Intensive IFR
Visi :
Ceiling :
>= 8 km
>= 3000ft
5 to 8 km
1000 to 3000 ft
1500m to 5 km
500 to 1000 ft
800 to 1500m
200 to 500 ft
< 800m
< 200 ft
Symbols :   Thunderstorms  Fog  Heavy snow  Heavy precipitations  Wind > 20 kt
SIGMETs :     Misc.  Thunderstorms  Icing  Turbulence  Mountain Waves  Volcanic Ashes






- Airport Elevation : 1302 ft
- IATA code : GNB


LFLS - Grenoble / St. Geoirs

CURRENT METAR :
  • 221500Z AUTO 27010KT 5000 RA BR FEW010/// BKN017/// BKN025/// ///CB 08/06 Q0992 TEMPO 30015G30KT BKN009 OVC020

EXPIRED METARs :
  • 221430Z AUTO 07004KT 9999 FEW030/// SCT046/// BKN062/// ///CB 09/08 Q0990 TEMPO 30015G30KT 3000 RA BKN009 OVC020
  • 221400Z AUTO 11004KT 090V150 4800 -RA BR FEW022/// SCT042/// OVC054/// ///TCU 09/08 Q0991 TEMPO 30015G30KT RA BKN009 OVC018
  • 221330Z AUTO 32003KT 9000 -RA OVC052/// ///TCU 10/08 Q0991 TEMPO 30015G30KT 3000 RA BKN009 OVC018
  • 221300Z AUTO VRB02KT 9999 BKN049 OVC056 11/07 Q0992 TEMPO 30015G30KT 3000 RA BKN009 OVC018
  • 221230Z AUTO 32004KT 300V360 9999 BKN058 BKN070 10/07 Q0992 TEMPO 30015G30KT 3000 RA BKN009 OVC018

TAF TAF LFLS
Valid from the 22 at 15:00 until the 23 at 15:00 UTC


221400Z 2215/2315 30012KT 6000 -RA SCT020 OVC050
TEMPO 2215/2219 30015G30KT 3000 RA BKN009 OVC020
FM221900 30008KT 6000 -RASN SCT009 OVC020
PROB30
TEMPO 2219/2221 3000 -SN BKN004 OVC020
FM222100 09006KT 9999 BKN040
TEMPO 2221/2223 32010KT BKN012
PROB40
TEMPO 2223/2306 BKN012
BECMG 2308/2310 20010KT NSC
BECMG 2310/2312 20020G30KT BKN060
ATIS : +33 4 76 65 55 89



MET'MAP, your aeronautical weather chart ! - Copyright ORBIFLY December 2007 - Disclaimer

ORBIFLY MET'MAP TEAM :

Programming & Development : Alexandra Zaïnal
Concept & original design : Baudouin d'Aumeries
Assistance for programming : Marc-Olivier Méhu
Technical & hardware support : Manuel Goepfert

Contact : metmap@orbifly.com




SOURCES & CREDITS :

   NOAA